Date,TemperatureHighF,TemperatureAvgF,TemperatureLowF,DewpointHighF,DewpointAvgF,DewpointLowF,HumidityHigh,HumidityAvg,HumidityLow,PressureMaxIn,PressureMinIn,WindSpeedMaxMPH,WindSpeedAvgMPH,GustSpeedMaxMPH,PrecipitationSumIn
2012-1-1,45,35,24,37,20,-3,82,56,19,30.24,29.50,45,13,45,0.02
2012-1-2,28,21,15,6,-6,-16,48,32,19,30.47,30.23,37,10,37,0.02
2012-1-3,33,23,11,4,-4,-9,55,33,19,30.47,29.96,25,4,25,0.00
2012-1-4,47,35,27,22,9,-8,51,34,19,30.11,29.93,21,3,21,0.00
2012-1-5,60,45,32,26,22,16,58,41,19,30.02,29.72,14,3,18,0.00
2012-1-6,59,46,36,31,26,17,59,45,23,29.91,29.70,17,2,17,0.00
2012-1-7,52,37,29,29,21,18,65,52,32,30.26,29.90,20,3,20,0.00
2012-1-8,44,32,26,26,19,15,66,58,44,30.35,30.25,8,0,8,0.00
2012-1-9,51,38,26,26,21,17,78,53,30,30.27,30.00,24,5,24,0.00
2012-1-10,61,44,30,28,19,8,66,41,19,30.05,29.76,14,1,14,0.00
2012-1-11,67,43,28,29,20,7,66,44,19,29.76,29.56,26,3,26,0.00
2012-1-12,27,15,11,14,5,0,66,63,54,29.76,29.59,31,10,31,0.00
2012-1-13,19,15,11,5,2,-3,62,56,48,30.08,29.76,21,5,21,0.00
2012-1-14,37,20,8,12,0,-12,62,45,19,30.22,30.04,11,1,11,0.02
2012-1-15,42,31,20,23,17,6,70,56,38,30.24,29.89,28,6,29,0.02
2012-1-16,44,39,35,33,28,4,73,66,57,29.90,29.68,22,3,23,0.00
2012-1-17,36,24,10,29,14,-6,82,66,47,30.32,29.63,27,7,27,0.02
2012-1-18,29,17,4,8,-1,-11,56,45,19,30.32,29.81,26,4,26,0.00
2012-1-19,27,13,3,13,-12,-20,63,30,19,30.20,29.81,22,5,22,0.00
2012-1-20,13,9,2,2,-7,-20,62,42,19,30.22,30.01,20,4,20,0.00
2012-1-21,24,16,11,8,3,-1,62,54,47,30.25,29.98,16,2,17,0.00
2012-1-22,38,28,16,36,25,5,96,88,61,29.99,29.36,24,4,24,0.14
2012-1-23,43,32,27,42,26,17,96,78,60,30.00,29.32,31,9,31,0.02
2012-1-24,42,30,24,21,16,13,66,58,39,30.33,30.00,19,3,19,0.00
2012-1-25,36,30,22,25,20,-8,81,67,60,30.32,30.02,24,2,24,0.00
2012-1-26,41,33,30,34,28,25,86,82,73,30.02,29.72,14,2,14,0.00
2012-1-27,42,32,24,30,23,16,88,69,39,29.99,29.74,15,2,15,0.00
2012-1-28,42,31,22,29,14,-1,84,52,19,30.14,29.92,22,4,26,0.02
2012-1-29,39,31,26,19,12,-2,60,45,19,30.22,29.99,21,5,24,0.00
2012-1-30,65,45,28,32,22,13,57,43,19,30.13,29.78,25,5,25,0.00
2012-1-31,60,50,40,46,39,31,76,65,6,29.99,29.76,20,5,20,0.00
2012-2-1,44,37,32,34,29,25,84,75,61,30.18,29.98,9,1,9,0.00
2012-2-2,58,36,26,39,27,19,88,71,40,30.37,30.17,9,0,9,0.00
2012-2-3,35,33,31,34,31,30,96,92,86,30.42,30.27,27,5,27,0.16
2012-2-4,39,36,34,35,31,26,92,82,66,30.30,30.16,31,5,31,0.08
2012-2-5,53,37,28,32,25,1,77,65,41,30.33,30.22,13,3,13,0.00
2012-2-6,31,28,25,25,22,18,83,78,74,30.27,30.16,16,2,16,0.00
2012-2-7,33,29,24,28,24,17,83,79,71,30.42,30.19,12,2,12,0.00
2012-2-8,38,28,21,20,12,-1,70,52,20,30.43,30.33,10,3,10,0.00
2012-2-9,36,26,16,21,12,5,66,56,38,30.34,30.06,16,3,16,0.00
2012-2-10,34,27,15,25,13,-20,70,56,19,30.34,29.94,29,6,29,0.00
2012-2-11,27,17,8,-10,-15,-20,33,21,19,30.50,30.34,34,9,34,0.00
2012-2-12,41,24,11,2,-12,-20,30,19,19,30.47,30.22,22,5,22,0.00
2012-2-13,31,27,20,26,10,-16,84,54,19,30.22,29.81,18,2,18,0.00
2012-2-14,35,33,30,29,26,24,86,78,68,29.97,29.79,11,2,16,0.08
2012-2-15,42,36,29,36,31,24,87,80,69,30.01,29.92,16,2,16,0.20
2012-2-16,52,39,32,35,25,3,91,62,19,30.17,29.98,21,4,21,0.00
2012-2-17,54,39,26,28,22,17,71,53,32,30.18,30.01,20,4,20,0.00
2012-2-18,51,36,26,24,13,-4,63,42,19,30.24,30.11,15,3,15,0.00
2012-2-19,48,34,25,19,11,-1,58,41,19,30.20,30.12,12,2,12,0.00
2012-2-20,48,35,26,28,14,0,79,44,19,30.22,29.79,25,4,25,0.00
2012-2-21,48,39,33,36,28,22,90,68,40,29.78,29.62,23,5,23,0.31
2012-2-22,52,41,34,33,27,22,72,59,42,29.70,29.43,12,2,18,0.00
2012-2-23,39,35,32,34,30,25,87,80,68,29.50,29.42,14,2,14,0.22
2012-2-24,34,30,21,30,22,10,88,73,56,30.04,29.49,12,0,12,0.02
2012-2-25,34,24,14,16,7,0,65,49,35,30.30,30.04,15,1,15,0.02
2012-2-26,58,39,22,28,18,8,57,45,22,30.21,29.89,26,6,26,0.15
2012-2-27,42,32,24,19,14,6,56,46,24,30.46,30.13,21,4,21,0.00
2012-2-28,49,37,28,41,24,14,86,61,40,30.43,29.61,24,4,24,0.06
2012-2-29,53,43,33,50,30,19,93,62,35,29.73,29.41,40,13,40,0.22
2012-3-1,48,38,33,31,26,24,75,63,41,29.88,29.70,25,5,25,0.00
2012-3-2,37,34,32,30,27,18,87,75,58,29.73,29.46,22,6,22,0.12
2012-3-3,33,31,27,20,16,0,62,55,48,29.88,29.71,44,8,44,0.22
2012-3-4,33,26,19,22,13,7,77,57,37,30.09,29.85,15,2,15,0.00
2012-3-5,36,27,13,22,13,-4,69,56,19,30.35,30.08,20,3,20,0.06
2012-3-6,70,53,34,34,24,0,58,35,19,30.09,29.78,37,10,37,1.98
2012-3-7,68,59,40,46,39,29,80,48,34,29.93,29.75,40,9,40,0.06
2012-3-8,50,39,31,34,17,0,81,47,19,30.29,29.91,29,8,29,0.02
2012-3-9,51,38,26,19,4,-6,51,24,19,30.57,30.29,18,4,21,0.00
2012-3-10,64,48,33,21,12,-5,40,24,19,30.42,30.15,26,8,26,0.00
2012-3-11,66,54,42,46,25,7,77,34,19,30.21,29.90,30,6,30,0.08
2012-3-12,64,56,51,52,47,0,91,74,47,29.94,29.77,23,5,23,0.24
2012-3-13,75,60,44,45,38,24,84,50,19,30.11,29.94,14,2,14,0.00
2012-3-14,78,68,57,56,50,39,67,53,42,29.98,29.87,23,5,29,0.00
2012-3-15,82,72,63,58,54,48,79,56,31,30.02,29.92,20,4,20,0.00
2012-3-16,82,70,59,56,52,47,72,53,36,30.03,29.93,23,4,23,0.00
2012-3-17,84,71,62,57,52,44,77,52,31,30.03,29.89,23,5,23,0.00
2012-3-18,84,70,60,56,51,45,74,53,31,30.01,29.87,25,5,29,0.00
2012-3-19,83,71,63,61,55,48,81,59,36,29.94,29.77,33,6,33,0.20
2012-3-20,83,72,60,53,45,34,66,41,19,29.98,29.82,34,6,34,0.00
2012-3-21,84,73,61,53,45,35,66,40,19,30.05,29.96,19,2,19,0.00
2012-3-22,72,67,61,60,54,46,87,64,40,30.03,29.95,16,2,20,0.20
2012-3-23,71,61,54,58,51,46,91,72,41,29.97,29.79,9,0,9,0.00
2012-3-24,72,61,53,60,53,46,91,75,51,29.98,29.80,12,1,12,0.02
2012-3-25,78,65,54,58,50,44,88,61,32,30.09,29.97,11,0,11,0.00
2012-3-26,62,48,40,49,31,0,71,52,32,30.32,30.09,29,7,32,0.00
2012-3-27,77,61,46,53,40,28,55,46,34,30.13,29.78,27,8,29,0.00
2012-3-28,74,62,52,52,34,21,59,38,19,30.02,29.83,23,4,23,0.00
2012-3-29,64,54,46,35,33,29,61,46,32,30.10,29.85,25,4,26,0.00
2012-3-30,61,52,45,47,41,30,84,67,52,29.93,29.70,18,2,18,0.45
2012-3-31,63,52,43,46,38,36,79,62,39,29.97,29.74,18,3,18,0.20
2012-4-1,81,65,53,58,52,46,83,65,41,29.76,29.60,21,4,22,0.02
2012-4-2,76,63,51,52,47,42,75,58,40,29.82,29.70,32,5,32,0.00
2012-4-3,83,67,56,58,49,41,83,55,32,29.95,29.76,24,2,24,0.00
2012-4-4,71,58,50,42,25,9,59,32,19,29.97,29.84,33,7,33,0.00
2012-4-5,62,51,42,28,17,4,47,28,19,30.16,29.91,25,6,31,0.00
2012-4-6,63,50,35,28,16,0,51,28,19,30.29,30.15,20,2,21,0.00
2012-4-7,64,53,42,47,32,20,82,48,19,30.24,29.59,15,2,21,0.00
2012-4-8,69,56,40,44,26,16,81,37,19,30.34,30.06,21,3,21,0.00
2012-4-9,67,55,44,27,19,6,40,25,19,30.12,30.01,29,6,29,0.00
2012-4-10,56,45,33,17,7,-2,40,21,19,30.20,30.09,35,6,35,0.00
2012-4-11,60,46,32,22,12,-2,42,26,19,30.32,30.20,22,2,22,0.00
2012-4-12,65,52,37,28,21,13,60,33,19,30.27,30.09,44,1,44,0.00
2012-4-13,54,52,48,43,32,12,71,49,19,30.14,29.95,24,5,25,0.10
2012-4-14,70,60,52,60,51,43,89,73,60,29.97,29.63,16,2,16,1.04
2012-4-15,72,66,59,64,58,49,96,75,56,29.70,29.47,37,7,37,0.69
2012-4-16,62,54,46,51,38,32,83,56,39,30.23,29.46,33,8,33,0.02
2012-4-17,64,54,40,38,32,25,78,47,24,30.37,30.21,17,1,17,0.00
2012-4-18,74,63,52,48,41,32,62,47,32,30.22,29.92,29,4,29,0.00
2012-4-19,68,64,58,52,47,40,71,56,36,29.95,29.64,25,2,25,0.02
2012-4-20,63,47,42,45,37,34,82,69,51,30.05,29.65,23,4,23,0.14
2012-4-21,61,48,38,41,34,28,83,60,31,30.08,29.96,9,0,10,0.00
2012-4-22,60,51,43,37,24,12,58,36,19,30.16,29.94,16,3,21,0.00
2012-4-23,63,52,41,36,27,18,64,40,19,30.15,29.87,17,3,20,0.00
2012-4-24,72,60,48,39,34,-8,63,40,25,29.88,29.63,44,1,44,0.00
2012-4-25,80,65,53,52,43,0,59,45,31,29.68,29.52,20,2,20,0.00
2012-4-26,69,59,51,47,36,0,76,45,2,30.12,29.65,19,3,19,0.00
2012-4-27,58,50,41,30,18,8,51,31,19,30.24,29.96,29,5,31,0.00
2012-4-28,50,47,41,42,37,0,80,71,37,30.18,29.91,29,6,29,0.39
2012-4-29,53,49,43,51,42,36,93,79,61,30.20,29.98,28,4,28,0.83
2012-4-30,56,54,50,54,50,40,96,88,57,30.00,29.92,8,0,8,0.02
2012-5-1,61,55,48,59,52,45,96,92,86,29.99,29.77,14,1,14,0.29
2012-5-2,78,68,60,64,60,56,96,77,55,29.90,29.70,22,3,22,0.31
2012-5-3,83,74,66,64,61,0,85,64,43,29.94,29.80,21,3,21,0.51
2012-5-4,80,70,63,61,58,54,87,68,45,29.96,29.83,15,2,15,0.02
2012-5-5,78,67,59,61,58,0,89,73,54,29.99,29.92,18,4,18,0.00
2012-5-6,78,69,60,67,60,0,87,74,61,29.96,29.81,19,2,19,0.49
2012-5-7,73,65,59,62,54,40,96,71,31,29.94,29.80,12,2,16,0.98
2012-5-8,69,62,56,47,40,31,66,46,24,29.96,29.89,16,3,20,0.00
2012-5-9,68,59,50,46,39,32,72,50,30,29.99,29.93,14,2,14,0.00
2012-5-10,70,61,49,43,34,24,71,40,19,30.03,29.95,14,1,14,0.00
2012-5-11,80,68,54,51,43,33,57,41,28,30.12,30.00,44,3,44,0.00
2012-5-12,69,64,59,52,48,42,70,55,44,30.25,30.12,18,1,18,0.00
2012-5-13,75,66,57,49,39,25,72,42,19,30.27,30.12,13,1,13,0.00
2012-5-14,79,67,54,45,36,26,70,36,19,30.14,30.00,8,1,8,0.00
2012-5-15,85,71,59,52,40,34,58,36,19,30.00,29.84,17,2,17,0.00
2012-5-16,73,64,55,38,32,23,51,32,19,30.14,29.95,13,2,13,0.00
2012-5-17,76,65,52,37,29,23,44,27,19,30.14,29.98,9,1,9,0.00
2012-5-18,85,73,59,42,36,24,38,27,19,30.02,29.90,13,2,14,0.00
2012-5-19,89,78,67,52,47,40,51,34,19,30.00,29.90,20,2,20,0.00
2012-5-20,84,76,61,56,50,38,51,41,32,30.14,29.95,18,5,25,0.00
2012-5-21,74,64,52,39,34,25,55,35,19,30.22,30.10,18,2,18,0.00
2012-5-22,76,67,56,43,36,27,59,35,19,30.11,29.88,12,1,12,0.00
2012-5-23,82,71,59,44,37,32,48,31,19,29.89,29.66,22,3,22,0.00
2012-5-24,89,78,68,54,45,39,56,32,19,29.75,29.50,28,7,28,0.00
2012-5-25,82,70,59,54,47,38,74,48,21,30.06,29.75,13,2,13,0.00
2012-5-26,90,77,66,60,49,39,47,37,30,30.09,29.95,18,3,18,0.00
2012-5-27,93,82,72,66,55,44,69,42,19,29.95,29.78,16,3,16,0.02
2012-5-28,89,79,71,62,58,53,69,48,33,29.79,29.68,17,5,17,0.25
2012-5-29,76,70,64,36,31,26,34,24,19,29.93,29.85,12,1,12,0.00
2012-5-30,71,64,55,41,35,26,54,35,19,30.00,29.90,18,2,18,0.00
2012-5-31,60,53,50,47,44,39,84,71,46,29.98,29.88,21,3,21,0.98
2012-6-1,70,59,48,44,39,32,78,51,27,29.96,29.83,16,2,16,0.25
2012-6-2,72,64,57,50,46,40,66,54,43,29.84,29.77,11,1,13,0.25
2012-6-3,82,68,56,58,48,35,77,54,19,29.90,29.82,10,0,10,0.04
2012-6-4,79,70,63,60,53,47,80,57,33,29.93,29.80,12,1,12,0.04
2012-6-5,79,70,62,51,45,40,55,41,29,30.02,29.93,13,1,14,0.25
2012-6-6,77,68,58,47,42,36,56,39,24,30.10,30.02,11,1,12,0.25
2012-6-7,83,71,59,53,46,39,71,44,23,30.16,30.06,16,0,16,0.25
2012-6-8,85,74,62,53,47,40,69,41,21,30.10,29.91,13,1,44,0.25
2012-6-9,87,78,68,49,45,38,44,32,19,29.94,29.81,18,3,18,0.25
2012-6-10,87,80,72,57,54,49,51,41,31,29.91,29.81,25,4,25,0.25
2012-6-11,86,76,69,65,58,45,83,55,30,29.95,29.80,19,2,19,0.08
2012-6-12,74,67,59,47,42,36,63,41,27,30.14,29.95,19,2,19,0.25
2012-6-13,75,67,57,45,40,0,62,40,19,30.20,30.05,15,1,16,0.25
2012-6-14,86,74,60,51,43,35,52,35,19,30.07,29.92,18,2,18,0.25
2012-6-15,90,80,68,54,50,41,56,38,19,30.03,29.92,19,2,19,0.00
2012-6-16,89,75,68,69,64,53,87,69,40,30.01,29.87,22,1,22,0.96
2012-6-17,85,76,67,66,57,40,91,58,21,29.95,29.75,14,0,14,0.25
2012-6-18,90,83,75,65,62,58,68,51,35,29.79,29.66,44,5,44,0.00
2012-6-19,91,83,74,65,61,57,61,48,36,29.91,29.79,22,5,22,0.25
2012-6-20,92,84,76,64,61,58,59,47,33,29.97,29.82,44,5,44,0.25
2012-6-21,84,76,69,64,55,46,83,52,28,30.03,29.87,17,2,17,0.25
2012-6-22,85,74,62,55,48,0,68,43,21,30.07,29.96,11,0,11,0.25
2012-6-23,82,75,66,59,53,47,75,49,32,30.04,29.96,16,1,16,0.00
2012-6-24,87,76,67,67,60,52,87,58,43,30.04,29.92,7,0,7,0.43
2012-6-25,80,74,66,64,40,30,67,32,19,30.10,29.93,30,4,30,0.25
2012-6-26,82,71,58,49,42,31,52,36,24,30.08,29.91,19,2,19,0.25
2012-6-27,92,80,66,64,52,44,53,39,26,29.93,29.76,25,4,25,0.25
2012-6-28,98,86,75,72,66,61,69,52,42,29.89,29.79,13,1,14,0.25
2012-6-29,91,80,70,66,58,50,84,48,35,29.97,29.78,27,2,27,0.98
2012-6-30,89,79,69,69,65,61,86,65,40,29.90,29.81,11,0,11,0.08
2012-7-1,92,83,75,68,63,53,76,54,28,30.01,29.87,12,0,20,0.00
2012-7-2,95,86,76,68,65,59,75,51,31,29.98,29.90,11,1,11,0.00
2012-7-3,95,85,74,69,64,59,63,50,36,29.94,29.82,14,2,14,0.00
2012-7-4,98,88,79,68,64,60,66,46,32,29.91,29.84,14,1,16,0.00
2012-7-5,97,88,78,70,64,60,62,46,33,29.97,29.89,11,0,11,0.00
2012-7-6,99,89,78,72,66,23,75,49,24,30.01,29.94,11,0,11,0.00
2012-7-7,101,90,81,72,65,58,68,45,24,30.03,29.92,13,1,13,0.00
2012-7-8,88,81,74,61,50,44,53,34,22,30.11,30.03,23,3,23,0.00
2012-7-9,92,81,71,61,55,43,63,43,19,30.09,30.00,12,1,12,0.00
2012-7-10,86,78,71,61,51,39,60,41,22,30.12,30.04,19,2,19,0.00
2012-7-11,88,78,66,52,45,38,54,35,19,30.17,30.06,16,1,17,0.00
2012-7-12,92,81,67,56,51,43,61,39,19,30.09,30.01,10,0,10,0.00
2012-7-13,84,76,72,68,60,53,76,57,42,30.11,30.00,17,0,17,0.04
2012-7-14,90,80,72,66,62,56,82,57,34,30.09,29.98,12,1,12,0.00
2012-7-15,94,84,72,67,62,56,78,51,28,30.08,29.98,11,1,11,0.00
2012-7-16,94,86,77,65,62,58,61,45,31,30.02,29.84,23,2,23,0.00
2012-7-17,98,88,78,66,61,52,65,42,23,29.89,29.82,15,2,16,0.00
2012-7-18,99,88,76,69,63,57,75,44,26,29.92,29.79,15,2,16,0.12
2012-7-19,89,81,73,69,64,57,77,58,38,30.05,29.83,18,2,18,0.00
2012-7-20,86,77,70,60,58,54,70,53,35,30.14,30.02,16,1,16,0.00
2012-7-21,88,78,70,63,60,57,72,54,36,30.14,30.03,12,0,12,0.00
2012-7-22,92,82,73,63,59,56,65,46,31,30.14,29.97,16,2,22,0.00
2012-7-23,103,90,78,66,56,49,46,34,19,29.99,29.91,14,2,14,0.00
2012-7-24,92,86,81,66,60,56,57,42,31,30.02,29.88,16,2,16,0.00
2012-7-25,101,88,74,68,60,52,73,44,20,29.90,29.59,26,4,26,0.00
2012-7-26,90,80,73,70,63,53,80,57,32,29.83,29.61,16,2,23,0.37
2012-7-27,86,77,71,60,54,50,63,46,30,30.04,29.81,18,2,18,0.00
2012-7-28,84,75,68,60,57,52,72,54,35,30.17,30.04,8,0,8,0.00
2012-7-29,88,78,68,63,58,54,76,54,33,30.10,29.94,14,1,17,0.00
2012-7-30,94,83,73,65,59,55,59,46,29,29.96,29.88,8,0,8,0.00
2012-7-31,93,84,75,67,58,47,73,45,23,29.96,29.89,12,1,12,0.00
2012-8-1,93,82,71,63,57,48,71,44,22,29.98,29.85,12,1,12,0.00
2012-8-2,94,84,75,58,52,38,47,36,19,29.89,29.79,13,1,20,0.00
2012-8-3,94,84,72,63,58,54,62,43,27,29.88,29.82,12,2,12,0.00
2012-8-4,90,79,72,70,64,61,78,61,48,29.97,29.82,17,0,17,13.95
2012-8-5,83,74,66,63,54,44,77,53,29,30.18,29.97,12,1,12,0.00
2012-8-6,85,73,59,55,47,37,73,43,19,30.19,30.01,9,0,10,0.00
2012-8-7,93,80,66,63,55,49,62,43,24,30.01,29.92,10,1,13,0.00
2012-8-8,82,75,70,63,59,54,73,57,43,30.02,29.92,16,1,17,0.06
2012-8-9,83,74,66,62,59,55,76,61,46,29.95,29.85,16,2,17,0.00
2012-8-10,80,69,59,57,49,41,80,53,27,30.03,29.93,27,2,27,0.00
2012-8-11,80,69,58,50,46,40,68,46,26,30.07,29.99,11,1,11,0.00
2012-8-12,71,66,62,59,52,46,81,62,44,30.05,29.94,2,0,2,0.26
2012-8-13,73,67,63,62,58,55,87,75,55,29.99,29.92,14,0,14,0.08
2012-8-14,86,73,61,61,56,49,84,59,31,30.00,29.90,15,1,15,0.00
2012-8-15,86,76,66,58,54,49,69,49,30,29.97,29.83,20,2,20,0.00
2012-8-16,77,72,64,66,55,47,84,56,39,30.01,29.76,18,4,18,0.14
2012-8-17,77,66,55,51,46,41,75,50,28,30.07,29.99,11,1,11,0.00
2012-8-18,79,68,55,50,44,32,73,46,19,30.04,29.94,9,0,9,0.00
2012-8-19,78,69,60,54,47,41,72,49,27,30.01,29.93,16,1,16,0.00
2012-8-20,82,68,57,56,46,37,76,50,22,30.02,29.96,10,0,11,0.00
2012-8-21,84,70,56,52,42,-17,68,40,3,30.09,30.01,11,0,11,0.00
2012-8-22,89,75,61,50,45,-4,54,36,19,30.09,29.98,16,1,17,0.00
2012-8-23,93,82,69,52,46,41,45,30,19,30.06,29.95,13,2,13,0.00
2012-8-24,93,82,71,53,47,40,49,32,19,30.03,29.93,16,2,20,0.00
2012-8-25,91,81,70,60,49,40,54,35,19,30.02,29.92,17,2,21,0.00
2012-8-26,77,73,67,69,64,58,87,77,53,30.03,29.95,14,1,14,3.06
2012-8-27,89,76,66,70,61,0,90,64,29,30.14,30.02,10,0,10,0.00
2012-8-28,90,79,68,62,57,50,76,50,27,30.15,30.02,3,0,3,0.00
2012-8-29,90,80,69,60,57,0,69,48,29,30.08,29.95,14,0,14,0.00
2012-8-30,92,81,71,60,56,50,65,44,26,30.03,29.92,14,1,14,0.00
2012-8-31,88,81,72,66,59,51,64,48,38,30.07,29.97,11,0,11,0.00
2012-9-1,79,73,70,67,62,53,83,69,51,30.02,29.91,21,3,22,0.06
2012-9-2,86,77,70,68,64,59,77,65,49,29.93,29.87,14,1,14,0.00
2012-9-3,92,80,70,67,64,58,81,60,34,29.96,29.87,5,0,7,0.00
2012-9-4,93,83,74,69,64,49,79,55,34,29.91,29.80,13,0,15,0.00
2012-9-5,86,76,64,65,60,49,84,59,41,29.98,29.78,19,1,19,0.51
2012-9-6,85,75,66,63,51,36,77,48,19,30.00,29.86,8,0,8,0.00
2012-9-7,77,68,60,62,56,0,85,67,50,29.96,29.81,13,0,13,0.53
2012-9-8,73,63,53,50,44,40,74,53,31,30.01,29.83,19,1,19,0.00
2012-9-9,76,64,54,50,44,40,73,51,27,30.16,29.93,7,0,7,0.00
2012-9-10,78,67,57,52,45,39,71,49,25,30.21,30.06,0,0,0,0.04
2012-9-11,85,72,60,53,48,45,69,46,27,30.11,30.00,0,0,0,0.02
2012-9-12,88,76,64,56,50,39,65,43,19,30.13,30.04,0,0,0,0.00
2012-9-13,74,60,54,51,46,37,83,62,35,30.36,30.13,0,0,0,0.08
2012-9-14,75,62,51,52,44,35,84,57,24,30.38,30.29,0,0,0,0.00
2012-9-15,80,66,54,52,42,32,77,46,19,30.32,30.14,0,0,0,0.00
2012-9-16,76,65,55,49,46,41,75,51,29,30.14,29.96,0,0,0,0.00
2012-9-17,77,64,53,66,53,44,80,69,46,29.98,29.79,0,0,0,0.57
2012-9-18,65,56,46,44,34,22,75,49,21,30.01,29.92,0,0,0,0.57
2012-9-19,76,62,49,44,36,31,67,42,21,30.03,29.78,16,1,16,0.57
2012-9-20,69,60,55,44,35,29,48,39,24,29.95,29.88,6,0,6,0.00
2012-9-21,57,53,51,45,42,40,77,68,57,29.92,29.84,0,0,0,0.02
2012-9-22,63,53,44,45,35,29,82,54,30,30.22,29.83,19,2,19,0.00
2012-9-23,66,52,41,37,29,18,66,45,19,30.31,30.21,13,1,13,0.00
2012-9-24,72,57,42,35,31,24,76,43,19,30.24,29.89,18,2,18,0.00
2012-9-25,81,66,56,55,46,35,70,49,33,29.90,29.80,12,0,12,0.00
2012-9-26,76,63,55,55,43,34,73,50,25,30.15,29.88,13,1,14,0.00
2012-9-27,73,59,48,40,35,24,68,44,19,30.25,30.14,11,1,11,0.00
2012-9-28,75,59,46,44,38,26,72,49,1,30.24,30.12,16,0,18,0.00
2012-9-29,82,64,49,43,38,28,72,43,19,30.15,29.96,0,0,0,0.00
2012-9-30,77,62,52,44,37,29,61,42,19,29.99,29.90,0,0,0,0.00
2012-10-1,73,60,52,44,37,26,60,44,19,29.94,29.82,0,0,0,0.00
2012-10-2,77,62,50,44,38,28,67,45,19,29.92,29.83,0,0,0,0.00
2012-10-3,78,63,51,48,41,32,66,47,21,30.01,29.90,0,0,0,0.00
2012-10-4,65,56,48,51,43,34,77,62,40,30.18,30.00,0,0,0,0.00
2012-10-5,49,45,38,34,22,6,58,43,19,30.23,30.14,0,0,0,0.00
2012-10-6,47,40,33,24,19,13,55,44,34,30.23,30.15,0,0,0,0.00
2012-10-7,55,45,39,22,14,2,45,31,19,30.24,30.12,0,0,0,0.00
2012-10-8,62,50,38,30,21,8,56,35,19,30.12,29.93,0,0,0,0.00
2012-10-9,64,52,43,39,33,27,77,51,31,29.99,29.83,0,0,0,0.06
2012-10-10,57,45,34,36,23,11,76,46,19,30.19,29.99,0,0,0,0.00
2012-10-11,71,53,41,31,26,21,57,37,19,30.29,30.04,0,0,0,0.00
2012-10-12,61,50,39,30,18,6,44,29,19,30.44,30.18,0,0,0,0.00
2012-10-13,66,58,50,63,52,24,96,80,34,30.20,29.73,0,0,0,0.41
2012-10-14,65,57,47,60,53,41,96,86,76,29.88,29.44,20,2,20,0.55
2012-10-15,70,54,44,45,40,33,84,63,29,29.99,29.88,7,0,7,0.00
2012-10-16,77,63,50,46,42,39,70,49,29,29.93,29.46,20,2,21,0.00
2012-10-17,65,60,50,53,45,36,84,59,42,29.52,29.36,17,2,17,0.33
2012-10-18,50,46,44,42,37,29,90,72,45,29.44,29.38,19,3,19,0.12
2012-10-19,56,49,44,48,43,37,92,81,53,29.72,29.40,12,1,15,0.17
2012-10-20,59,48,42,46,40,36,92,75,45,29.93,29.72,3,0,5,0.00
2012-10-21,74,58,45,50,43,38,84,60,34,29.96,29.87,16,1,16,0.00
2012-10-22,66,63,60,64,59,49,96,86,62,29.92,29.78,16,0,16,0.31
2012-10-23,74,67,62,65,61,58,96,83,60,29.89,29.80,18,1,18,0.08
2012-10-24,84,71,63,61,59,57,90,68,42,29.89,29.75,24,3,24,0.20
2012-10-25,72,59,41,59,49,29,82,69,55,30.17,29.64,25,6,25,0.14
2012-10-26,60,43,33,29,22,7,67,47,19,30.37,30.17,20,3,20,0.00
2012-10-27,58,41,29,28,17,4,64,42,19,30.38,30.27,11,1,11,0.00
2012-10-28,58,42,29,24,17,5,57,38,19,30.33,30.26,15,1,15,0.00
2012-10-29,60,43,30,28,16,1,62,37,19,30.35,30.16,14,0,14,0.00
2012-10-30,62,44,34,24,14,0,52,32,19,30.16,29.90,23,3,44,0.00
2012-10-31,60,42,28,23,12,-1,56,33,19,29.96,29.89,18,2,18,0.00
2012-11-1,65,47,35,26,16,-3,47,31,19,29.96,29.84,15,2,18,0.00
2012-11-2,53,42,32,28,20,6,59,41,19,30.13,29.97,16,1,16,0.00
2012-11-3,51,43,37,31,26,18,63,52,38,30.22,30.10,14,1,16,0.00
2012-11-4,57,42,35,34,27,23,65,55,35,30.25,30.15,4,0,4,0.00
2012-11-5,42,42,41,29,28,28,59,59,57,30.17,30.16,0,0,0,0.00
2012-11-6,42,40,39,28,28,26,61,60,59,30.16,30.16,3,0,3,0.12
2012-11-7,47,42,39,35,31,28,85,66,54,30.16,30.11,5,2,5,0.15
2012-11-8,47,43,42,34,31,30,64,62,62,30.11,30.11,9,0,9,0.00
2012-11-9,54,46,45,44,36,34,71,69,64,30.11,30.01,5,0,9,0.00
2012-11-10,74,63,54,50,46,40,71,55,39,30.02,29.76,25,4,25,0.00
2012-11-11,64,53,32,52,41,20,84,66,45,30.06,29.65,30,6,30,0.39
2012-11-12,38,30,22,20,12,-3,62,47,19,30.37,30.03,25,6,25,0.02
2012-11-13,52,36,24,21,10,-5,59,37,16,30.49,30.37,12,0,12,0.00
2012-11-14,58,43,35,24,19,15,51,39,19,30.44,30.32,13,2,19,0.00
2012-11-15,61,44,34,28,20,0,61,41,19,30.34,30.27,14,1,14,0.00
2012-11-16,68,46,33,33,26,21,72,49,19,30.45,30.34,6,0,7,0.00
2012-11-17,63,47,38,30,24,13,60,43,19,30.48,30.37,11,1,16,0.00
2012-11-18,62,48,36,31,25,15,67,43,19,30.38,30.24,11,1,11,0.00
2012-11-19,55,50,46,42,35,28,71,57,45,30.25,30.07,16,1,16,0.00
2012-11-20,72,53,43,44,41,37,86,66,33,30.19,30.05,9,0,9,0.00
2012-11-21,66,49,36,49,39,33,96,71,32,30.22,30.04,23,3,23,0.00
2012-11-22,65,53,40,46,38,28,72,58,36,30.04,29.76,31,8,31,0.06
2012-11-23,40,32,22,28,8,-8,65,39,19,30.30,30.01,26,7,28,0.00
2012-11-24,39,26,17,16,8,-6,60,47,19,30.29,29.91,16,1,16,0.00
2012-11-25,48,37,31,22,16,4,52,43,19,30.11,29.84,14,2,15,0.00
2012-11-26,37,29,19,18,8,-5,56,42,19,30.40,30.10,13,2,44,0.00
2012-11-27,35,27,14,9,-3,-8,55,29,19,30.42,30.25,12,1,12,0.00
2012-11-28,54,38,24,18,8,-4,51,30,19,30.40,30.22,9,0,9,0.00
2012-11-29,56,43,33,30,24,0,60,48,32,30.23,29.99,12,0,12,0.00
2012-11-30,63,47,36,33,29,25,70,51,25,30.11,29.99,12,0,12,0.00
2012-12-1,60,49,35,50,40,-5,81,74,7,30.10,29.84,14,0,14,0.00
2012-12-2,59,55,50,52,49,46,89,79,71,30.02,29.85,5,0,9,0.00
2012-12-3,69,59,50,59,51,38,96,76,55,29.98,29.73,29,5,29,0.00
2012-12-4,66,50,38,38,27,14,65,44,19,30.34,29.97,27,3,27,0.00
2012-12-5,50,37,28,25,12,-2,60,38,19,30.41,30.13,16,2,18,0.00
2012-12-6,51,44,37,35,30,25,72,58,49,30.14,29.89,20,3,20,0.02
2012-12-7,44,40,36,36,32,28,80,71,61,29.96,29.88,14,2,14,0.12
2012-12-8,39,36,33,31,28,25,83,75,58,30.05,29.90,14,2,15,0.04
2012-12-9,39,36,25,36,30,16,89,80,67,30.01,29.77,29,4,29,0.04
2012-12-10,27,24,21,19,14,11,75,66,60,30.00,29.82,19,3,20,0.00
2012-12-11,39,28,18,16,11,-1,69,52,19,30.12,29.96,17,1,21,0.00
2012-12-12,52,38,27,18,13,3,56,38,19,30.22,30.11,21,3,21,0.00
2012-12-13,53,41,33,18,12,1,46,32,19,30.20,30.06,22,3,22,0.00
2012-12-14,54,42,32,35,23,16,75,47,24,30.15,29.92,11,1,13,0.16
2012-12-15,50,46,40,48,43,0,96,89,76,29.92,29.51,44,3,44,0.14
2012-12-16,48,40,36,43,33,29,86,79,71,29.77,29.59,22,4,22,0.00
2012-12-17,36,33,31,30,26,23,83,76,70,29.76,29.68,10,1,10,0.00
2012-12-18,45,36,31,35,29,23,85,76,62,29.89,29.53,23,4,23,0.00
2012-12-19,38,35,33,34,28,26,92,77,70,30.03,29.63,37,2,37,0.08
2012-12-20,38,30,16,37,28,10,94,90,74,29.83,29.24,46,13,52,0.08
2012-12-21,28,17,11,9,4,0,73,58,41,30.24,29.83,31,5,31,0.02
2012-12-22,37,22,10,13,6,-9,68,52,18,30.24,29.93,12,2,14,0.04
2012-12-23,38,24,14,17,11,4,71,58,37,30.03,29.91,17,2,20,0.00
2012-12-24,27,24,21,20,16,12,75,71,66,30.16,29.88,21,2,21,0.00
2012-12-25,34,21,11,16,4,-8,70,49,19,30.36,30.15,21,4,21,0.00
2012-12-26,26,23,19,14,11,0,63,60,52,30.22,30.09,17,3,25,0.00
2012-12-27,32,23,12,20,11,0,71,58,45,30.22,30.08,20,0,20,0.00
2012-12-28,31,28,27,22,20,17,76,71,67,30.08,29.91,9,0,9,0.00
2012-12-29,27,20,14,20,10,2,77,65,58,30.25,29.91,21,3,21,0.00
2012-12-30,35,24,12,19,11,0,66,56,43,30.31,30.02,20,2,20,0.00
2012-12-31,36,24,17,18,9,2,58,52,45,30.18,30.02,23,3,23,0.00
2013-1-1,30,14,6,2,-7,-12,51,38,2,30.28,30.16,11,1,11,0.00